sensor_id;sensor_type;location;lat;lon;timestamp;P1;durP1;ratioP1;P2;durP2;ratioP2
42260;SDS011;27926;48.062;7.474;2022-09-14T00:01:06;5.80;;;2.25;;
42260;SDS011;27926;48.062;7.474;2022-09-14T00:03:31;4.70;;;2.50;;
42260;SDS011;27926;48.062;7.474;2022-09-14T00:06:01;4.03;;;3.20;;
42260;SDS011;27926;48.062;7.474;2022-09-14T00:08:34;7.63;;;3.53;;
42260;SDS011;27926;48.062;7.474;2022-09-14T00:11:02;7.07;;;4.20;;
42260;SDS011;27926;48.062;7.474;2022-09-14T00:13:38;14.43;;;4.00;;
42260;SDS011;27926;48.062;7.474;2022-09-14T00:16:06;6.25;;;3.50;;
42260;SDS011;27926;48.062;7.474;2022-09-14T00:18:33;4.13;;;3.28;;
42260;SDS011;27926;48.062;7.474;2022-09-14T00:21:03;9.40;;;4.10;;
42260;SDS011;27926;48.062;7.474;2022-09-14T00:23:29;5.40;;;4.32;;
42260;SDS011;27926;48.062;7.474;2022-09-14T00:25:54;5.63;;;3.78;;
42260;SDS011;27926;48.062;7.474;2022-09-14T00:28:25;7.45;;;3.83;;
42260;SDS011;27926;48.062;7.474;2022-09-14T00:30:49;3.53;;;3.23;;
42260;SDS011;27926;48.062;7.474;2022-09-14T00:33:14;6.20;;;4.07;;
42260;SDS011;27926;48.062;7.474;2022-09-14T00:35:38;5.53;;;4.22;;
42260;SDS011;27926;48.062;7.474;2022-09-14T00:38:03;4.93;;;2.90;;
42260;SDS011;27926;48.062;7.474;2022-09-14T00:40:29;12.30;;;4.75;;
42260;SDS011;27926;48.062;7.474;2022-09-14T00:42:54;6.80;;;4.28;;
42260;SDS011;27926;48.062;7.474;2022-09-14T00:45:21;5.07;;;3.78;;
42260;SDS011;27926;48.062;7.474;2022-09-14T00:47:48;7.63;;;3.80;;
42260;SDS011;27926;48.062;7.474;2022-09-14T00:50:15;5.10;;;3.38;;
42260;SDS011;27926;48.062;7.474;2022-09-14T00:52:41;7.75;;;3.80;;
42260;SDS011;27926;48.062;7.474;2022-09-14T00:55:10;5.95;;;3.67;;
42260;SDS011;27926;48.062;7.474;2022-09-14T00:57:39;16.55;;;3.88;;
42260;SDS011;27926;48.062;7.474;2022-09-14T01:00:07;4.57;;;3.53;;
42260;SDS011;27926;48.062;7.474;2022-09-14T01:02:34;9.00;;;3.30;;
42260;SDS011;27926;48.062;7.474;2022-09-14T01:04:59;8.47;;;3.70;;
42260;SDS011;27926;48.062;7.474;2022-09-14T01:18:13;7.38;;;4.45;;
42260;SDS011;27926;48.062;7.474;2022-09-14T01:20:44;7.10;;;4.07;;
42260;SDS011;27926;48.062;7.474;2022-09-14T01:29:05;5.70;;;3.72;;
42260;SDS011;27926;48.062;7.474;2022-09-14T01:31:54;7.43;;;4.05;;
42260;SDS011;27926;48.062;7.474;2022-09-14T01:37:05;5.13;;;3.35;;
42260;SDS011;27926;48.062;7.474;2022-09-14T01:39:36;5.40;;;3.55;;
42260;SDS011;27926;48.062;7.474;2022-09-14T01:42:03;4.88;;;3.75;;
42260;SDS011;27926;48.062;7.474;2022-09-14T01:44:33;5.80;;;3.80;;
42260;SDS011;27926;48.062;7.474;2022-09-14T01:47:05;4.88;;;3.72;;
42260;SDS011;27926;48.062;7.474;2022-09-14T01:49:40;7.38;;;4.53;;
42260;SDS011;27926;48.062;7.474;2022-09-14T01:52:14;7.25;;;3.90;;
42260;SDS011;27926;48.062;7.474;2022-09-14T01:54:44;6.65;;;4.22;;
42260;SDS011;27926;48.062;7.474;2022-09-14T01:59:45;4.07;;;3.45;;
42260;SDS011;27926;48.062;7.474;2022-09-14T02:02:13;6.40;;;4.00;;
42260;SDS011;27926;48.062;7.474;2022-09-14T02:07:29;8.57;;;3.80;;
42260;SDS011;27926;48.062;7.474;2022-09-14T02:09:54;6.78;;;4.35;;
42260;SDS011;27926;48.062;7.474;2022-09-14T02:12:19;8.25;;;3.60;;
42260;SDS011;27926;48.062;7.474;2022-09-14T02:17:10;15.40;;;4.38;;
42260;SDS011;27926;48.062;7.474;2022-09-14T02:19:36;5.43;;;4.25;;
42260;SDS011;27926;48.062;7.474;2022-09-14T02:22:09;5.30;;;3.92;;
42260;SDS011;27926;48.062;7.474;2022-09-14T02:24:34;6.88;;;4.65;;
42260;SDS011;27926;48.062;7.474;2022-09-14T02:26:59;5.18;;;4.60;;
42260;SDS011;27926;48.062;7.474;2022-09-14T02:29:25;6.82;;;4.70;;
42260;SDS011;27926;48.062;7.474;2022-09-14T02:31:57;10.27;;;5.07;;
42260;SDS011;27926;48.062;7.474;2022-09-14T02:34:33;6.80;;;4.28;;
42260;SDS011;27926;48.062;7.474;2022-09-14T02:44:40;10.90;;;5.13;;
42260;SDS011;27926;48.062;7.474;2022-09-14T02:47:12;8.20;;;5.90;;
42260;SDS011;27926;48.062;7.474;2022-09-14T02:52:17;10.13;;;5.72;;
42260;SDS011;27926;48.062;7.474;2022-09-14T02:55:05;8.95;;;5.53;;
42260;SDS011;27926;48.062;7.474;2022-09-14T03:00:23;10.80;;;5.63;;
42260;SDS011;27926;48.062;7.474;2022-09-14T03:02:48;11.88;;;7.00;;
42260;SDS011;27926;48.062;7.474;2022-09-14T03:05:12;13.38;;;7.32;;
42260;SDS011;27926;48.062;7.474;2022-09-14T03:07:37;14.10;;;6.35;;
42260;SDS011;27926;48.062;7.474;2022-09-14T03:10:02;8.20;;;6.63;;
42260;SDS011;27926;48.062;7.474;2022-09-14T03:12:26;10.10;;;6.38;;
42260;SDS011;27926;48.062;7.474;2022-09-14T03:14:51;10.70;;;6.35;;
42260;SDS011;27926;48.062;7.474;2022-09-14T03:17:16;9.75;;;6.63;;
42260;SDS011;27926;48.062;7.474;2022-09-14T03:19:40;11.38;;;6.15;;
42260;SDS011;27926;48.062;7.474;2022-09-14T03:22:05;8.90;;;6.32;;
42260;SDS011;27926;48.062;7.474;2022-09-14T03:24:29;6.82;;;6.05;;
42260;SDS011;27926;48.062;7.474;2022-09-14T03:26:55;10.93;;;6.75;;
42260;SDS011;27926;48.062;7.474;2022-09-14T03:29:19;8.45;;;6.18;;
42260;SDS011;27926;48.062;7.474;2022-09-14T03:31:44;13.70;;;6.93;;
42260;SDS011;27926;48.062;7.474;2022-09-14T03:34:09;11.90;;;6.35;;
42260;SDS011;27926;48.062;7.474;2022-09-14T03:36:33;10.52;;;7.13;;
42260;SDS011;27926;48.062;7.474;2022-09-14T03:38:58;11.32;;;6.35;;
42260;SDS011;27926;48.062;7.474;2022-09-14T03:41:25;10.43;;;6.22;;
42260;SDS011;27926;48.062;7.474;2022-09-14T03:43:49;10.73;;;6.18;;
42260;SDS011;27926;48.062;7.474;2022-09-14T03:46:15;9.43;;;5.65;;
42260;SDS011;27926;48.062;7.474;2022-09-14T03:48:42;8.48;;;5.78;;
42260;SDS011;27926;48.062;7.474;2022-09-14T03:51:08;8.70;;;5.35;;
42260;SDS011;27926;48.062;7.474;2022-09-14T03:53:33;10.40;;;5.55;;
42260;SDS011;27926;48.062;7.474;2022-09-14T03:55:59;9.40;;;5.30;;
42260;SDS011;27926;48.062;7.474;2022-09-14T03:58:23;25.23;;;5.60;;
42260;SDS011;27926;48.062;7.474;2022-09-14T04:00:49;8.38;;;5.53;;
42260;SDS011;27926;48.062;7.474;2022-09-14T04:03:14;7.63;;;5.07;;
42260;SDS011;27926;48.062;7.474;2022-09-14T04:05:39;8.88;;;5.85;;
42260;SDS011;27926;48.062;7.474;2022-09-14T04:08:06;10.13;;;5.15;;
42260;SDS011;27926;48.062;7.474;2022-09-14T04:10:31;7.80;;;4.85;;
42260;SDS011;27926;48.062;7.474;2022-09-14T04:12:56;11.55;;;5.28;;
42260;SDS011;27926;48.062;7.474;2022-09-14T04:15:24;7.63;;;4.85;;
42260;SDS011;27926;48.062;7.474;2022-09-14T04:17:49;7.90;;;4.10;;
42260;SDS011;27926;48.062;7.474;2022-09-14T04:20:14;8.98;;;5.38;;
42260;SDS011;27926;48.062;7.474;2022-09-14T04:22:39;10.35;;;5.15;;
42260;SDS011;27926;48.062;7.474;2022-09-14T04:25:04;7.97;;;4.93;;
42260;SDS011;27926;48.062;7.474;2022-09-14T04:27:29;5.32;;;4.13;;
42260;SDS011;27926;48.062;7.474;2022-09-14T04:29:54;7.15;;;4.55;;
42260;SDS011;27926;48.062;7.474;2022-09-14T04:32:19;5.38;;;3.83;;
42260;SDS011;27926;48.062;7.474;2022-09-14T04:34:43;7.13;;;4.50;;
42260;SDS011;27926;48.062;7.474;2022-09-14T04:37:08;7.32;;;4.20;;
42260;SDS011;27926;48.062;7.474;2022-09-14T04:39:32;4.28;;;3.63;;
42260;SDS011;27926;48.062;7.474;2022-09-14T04:41:57;5.33;;;4.00;;
42260;SDS011;27926;48.062;7.474;2022-09-14T04:44:22;10.73;;;4.20;;
42260;SDS011;27926;48.062;7.474;2022-09-14T04:46:46;6.82;;;3.97;;
42260;SDS011;27926;48.062;7.474;2022-09-14T04:49:11;5.65;;;3.40;;
42260;SDS011;27926;48.062;7.474;2022-09-14T04:51:36;8.73;;;3.40;;
42260;SDS011;27926;48.062;7.474;2022-09-14T04:54:02;6.88;;;3.70;;
42260;SDS011;27926;48.062;7.474;2022-09-14T04:56:29;9.52;;;4.10;;
42260;SDS011;27926;48.062;7.474;2022-09-14T04:58:56;8.05;;;3.95;;
42260;SDS011;27926;48.062;7.474;2022-09-14T05:01:23;5.05;;;3.22;;
42260;SDS011;27926;48.062;7.474;2022-09-14T05:03:51;6.38;;;3.30;;
42260;SDS011;27926;48.062;7.474;2022-09-14T05:06:17;10.70;;;3.53;;
42260;SDS011;27926;48.062;7.474;2022-09-14T05:08:43;3.85;;;3.40;;
42260;SDS011;27926;48.062;7.474;2022-09-14T05:11:10;5.85;;;3.78;;
42260;SDS011;27926;48.062;7.474;2022-09-14T05:13:36;7.68;;;4.35;;
42260;SDS011;27926;48.062;7.474;2022-09-14T05:16:37;8.52;;;4.30;;
42260;SDS011;27926;48.062;7.474;2022-09-14T05:18:59;8.95;;;4.40;;
42260;SDS011;27926;48.062;7.474;2022-09-14T05:21:25;8.35;;;4.32;;
42260;SDS011;27926;48.062;7.474;2022-09-14T05:23:57;5.10;;;3.78;;
42260;SDS011;27926;48.062;7.474;2022-09-14T05:26:24;6.32;;;4.72;;
42260;SDS011;27926;48.062;7.474;2022-09-14T05:28:50;3.95;;;3.45;;
42260;SDS011;27926;48.062;7.474;2022-09-14T05:31:16;4.60;;;3.35;;
42260;SDS011;27926;48.062;7.474;2022-09-14T05:33:45;6.93;;;3.88;;
42260;SDS011;27926;48.062;7.474;2022-09-14T05:36:10;7.13;;;4.03;;
42260;SDS011;27926;48.062;7.474;2022-09-14T05:38:35;8.95;;;3.97;;
42260;SDS011;27926;48.062;7.474;2022-09-14T05:41:01;9.15;;;4.47;;
42260;SDS011;27926;48.062;7.474;2022-09-14T05:43:26;6.40;;;3.92;;
42260;SDS011;27926;48.062;7.474;2022-09-14T05:45:52;4.20;;;3.80;;
42260;SDS011;27926;48.062;7.474;2022-09-14T05:48:16;7.47;;;4.13;;
42260;SDS011;27926;48.062;7.474;2022-09-14T05:50:41;6.63;;;4.22;;
42260;SDS011;27926;48.062;7.474;2022-09-14T05:53:06;5.38;;;4.40;;
42260;SDS011;27926;48.062;7.474;2022-09-14T05:55:30;9.32;;;4.20;;
42260;SDS011;27926;48.062;7.474;2022-09-14T05:57:55;9.68;;;4.80;;
42260;SDS011;27926;48.062;7.474;2022-09-14T06:00:20;7.63;;;4.75;;
42260;SDS011;27926;48.062;7.474;2022-09-14T06:02:46;6.80;;;4.43;;
42260;SDS011;27926;48.062;7.474;2022-09-14T06:05:11;13.27;;;5.07;;
42260;SDS011;27926;48.062;7.474;2022-09-14T06:07:36;12.60;;;5.27;;
42260;SDS011;27926;48.062;7.474;2022-09-14T06:10:00;10.00;;;4.18;;
42260;SDS011;27926;48.062;7.474;2022-09-14T06:12:25;6.47;;;4.90;;
42260;SDS011;27926;48.062;7.474;2022-09-14T06:14:51;8.38;;;4.00;;
42260;SDS011;27926;48.062;7.474;2022-09-14T06:17:15;4.35;;;3.92;;
42260;SDS011;27926;48.062;7.474;2022-09-14T06:19:40;6.10;;;4.07;;
42260;SDS011;27926;48.062;7.474;2022-09-14T06:22:05;6.30;;;3.73;;
42260;SDS011;27926;48.062;7.474;2022-09-14T06:24:29;9.40;;;3.67;;
42260;SDS011;27926;48.062;7.474;2022-09-14T06:26:55;7.65;;;4.10;;
42260;SDS011;27926;48.062;7.474;2022-09-14T06:29:19;8.88;;;5.20;;
42260;SDS011;27926;48.062;7.474;2022-09-14T06:31:44;9.27;;;3.55;;
42260;SDS011;27926;48.062;7.474;2022-09-14T06:34:08;6.00;;;3.25;;
42260;SDS011;27926;48.062;7.474;2022-09-14T06:36:33;6.07;;;3.53;;
42260;SDS011;27926;48.062;7.474;2022-09-14T06:38:58;7.35;;;3.20;;
42260;SDS011;27926;48.062;7.474;2022-09-14T06:41:23;12.40;;;2.78;;
42260;SDS011;27926;48.062;7.474;2022-09-14T06:43:51;4.95;;;2.67;;
42260;SDS011;27926;48.062;7.474;2022-09-14T06:46:20;2.60;;;2.40;;
42260;SDS011;27926;48.062;7.474;2022-09-14T06:48:51;6.95;;;2.80;;
42260;SDS011;27926;48.062;7.474;2022-09-14T06:51:26;5.03;;;2.40;;
42260;SDS011;27926;48.062;7.474;2022-09-14T06:53:54;3.25;;;2.67;;
42260;SDS011;27926;48.062;7.474;2022-09-14T06:56:20;7.30;;;2.42;;
42260;SDS011;27926;48.062;7.474;2022-09-14T06:58:44;3.97;;;1.80;;
42260;SDS011;27926;48.062;7.474;2022-09-14T07:01:10;4.47;;;2.07;;
42260;SDS011;27926;48.062;7.474;2022-09-14T07:03:37;10.38;;;2.15;;
42260;SDS011;27926;48.062;7.474;2022-09-14T07:06:03;4.83;;;1.87;;
42260;SDS011;27926;48.062;7.474;2022-09-14T07:08:29;4.05;;;2.20;;
42260;SDS011;27926;48.062;7.474;2022-09-14T07:10:54;2.37;;;2.00;;
42260;SDS011;27926;48.062;7.474;2022-09-14T07:15:48;2.25;;;1.70;;
42260;SDS011;27926;48.062;7.474;2022-09-14T07:18:14;4.47;;;2.08;;
42260;SDS011;27926;48.062;7.474;2022-09-14T07:20:38;6.35;;;2.28;;
42260;SDS011;27926;48.062;7.474;2022-09-14T07:23:03;3.77;;;2.07;;
42260;SDS011;27926;48.062;7.474;2022-09-14T07:25:27;5.73;;;1.93;;
42260;SDS011;27926;48.062;7.474;2022-09-14T07:27:52;2.83;;;1.60;;
42260;SDS011;27926;48.062;7.474;2022-09-14T07:30:17;3.87;;;2.23;;
42260;SDS011;27926;48.062;7.474;2022-09-14T07:32:41;2.70;;;1.60;;
42260;SDS011;27926;48.062;7.474;2022-09-14T07:35:06;7.47;;;3.73;;
42260;SDS011;27926;48.062;7.474;2022-09-14T07:37:31;9.27;;;2.08;;
42260;SDS011;27926;48.062;7.474;2022-09-14T07:39:55;2.60;;;1.80;;
42260;SDS011;27926;48.062;7.474;2022-09-14T07:42:20;3.50;;;1.97;;
42260;SDS011;27926;48.062;7.474;2022-09-14T07:44:45;1.93;;;1.73;;
42260;SDS011;27926;48.062;7.474;2022-09-14T07:47:10;2.63;;;2.10;;
42260;SDS011;27926;48.062;7.474;2022-09-14T07:49:34;4.00;;;1.93;;
42260;SDS011;27926;48.062;7.474;2022-09-14T07:51:59;9.43;;;1.47;;
42260;SDS011;27926;48.062;7.474;2022-09-14T07:54:24;3.87;;;1.80;;
42260;SDS011;27926;48.062;7.474;2022-09-14T07:56:48;2.73;;;1.53;;
42260;SDS011;27926;48.062;7.474;2022-09-14T07:59:13;4.93;;;2.27;;
42260;SDS011;27926;48.062;7.474;2022-09-14T08:01:38;4.20;;;1.80;;
42260;SDS011;27926;48.062;7.474;2022-09-14T08:04:03;4.20;;;2.07;;
42260;SDS011;27926;48.062;7.474;2022-09-14T08:06:28;5.03;;;2.17;;
42260;SDS011;27926;48.062;7.474;2022-09-14T08:08:54;8.27;;;2.13;;
42260;SDS011;27926;48.062;7.474;2022-09-14T08:11:20;4.32;;;1.90;;
42260;SDS011;27926;48.062;7.474;2022-09-14T08:14:00;2.53;;;1.58;;
42260;SDS011;27926;48.062;7.474;2022-09-14T08:16:28;2.33;;;1.58;;
42260;SDS011;27926;48.062;7.474;2022-09-14T08:18:54;6.75;;;1.60;;
42260;SDS011;27926;48.062;7.474;2022-09-14T08:21:21;4.45;;;1.63;;
42260;SDS011;27926;48.062;7.474;2022-09-14T08:23:46;4.47;;;1.73;;
42260;SDS011;27926;48.062;7.474;2022-09-14T08:26:12;5.87;;;1.50;;
42260;SDS011;27926;48.062;7.474;2022-09-14T08:28:39;2.75;;;1.45;;
42260;SDS011;27926;48.062;7.474;2022-09-14T08:31:05;3.50;;;1.55;;
42260;SDS011;27926;48.062;7.474;2022-09-14T08:33:36;4.00;;;1.60;;
42260;SDS011;27926;48.062;7.474;2022-09-14T08:36:02;3.53;;;1.45;;
42260;SDS011;27926;48.062;7.474;2022-09-14T08:40:52;2.65;;;1.30;;
42260;SDS011;27926;48.062;7.474;2022-09-14T08:43:18;1.97;;;1.23;;
42260;SDS011;27926;48.062;7.474;2022-09-14T08:45:44;7.22;;;2.03;;
42260;SDS011;27926;48.062;7.474;2022-09-14T08:48:14;3.35;;;2.00;;
42260;SDS011;27926;48.062;7.474;2022-09-14T08:50:45;1.90;;;1.42;;
42260;SDS011;27926;48.062;7.474;2022-09-14T08:53:10;3.23;;;1.50;;
42260;SDS011;27926;48.062;7.474;2022-09-14T08:55:41;4.77;;;1.10;;
42260;SDS011;27926;48.062;7.474;2022-09-14T09:02:15;2.50;;;1.30;;
42260;SDS011;27926;48.062;7.474;2022-09-14T09:07:59;2.97;;;1.42;;
42260;SDS011;27926;48.062;7.474;2022-09-14T09:10:08;1.67;;;1.33;;
42260;SDS011;27926;48.062;7.474;2022-09-14T09:12:39;4.82;;;1.80;;
42260;SDS011;27926;48.062;7.474;2022-09-14T09:17:45;3.95;;;1.30;;
42260;SDS011;27926;48.062;7.474;2022-09-14T09:20:17;4.22;;;1.20;;
42260;SDS011;27926;48.062;7.474;2022-09-14T09:22:48;3.08;;;1.42;;
42260;SDS011;27926;48.062;7.474;2022-09-14T09:25:21;4.68;;;1.75;;
42260;SDS011;27926;48.062;7.474;2022-09-14T09:27:53;1.67;;;1.50;;
42260;SDS011;27926;48.062;7.474;2022-09-14T09:30:23;3.25;;;1.58;;
42260;SDS011;27926;48.062;7.474;2022-09-14T09:32:48;4.50;;;1.70;;
42260;SDS011;27926;48.062;7.474;2022-09-14T09:35:13;5.90;;;1.93;;
42260;SDS011;27926;48.062;7.474;2022-09-14T09:37:43;2.40;;;1.58;;
42260;SDS011;27926;48.062;7.474;2022-09-14T09:40:19;6.90;;;1.80;;
42260;SDS011;27926;48.062;7.474;2022-09-14T09:43:04;3.90;;;1.40;;
42260;SDS011;27926;48.062;7.474;2022-09-14T09:45:53;5.70;;;1.55;;
42260;SDS011;27926;48.062;7.474;2022-09-14T09:48:45;2.60;;;1.30;;
42260;SDS011;27926;48.062;7.474;2022-09-14T09:51:24;4.70;;;1.50;;
42260;SDS011;27926;48.062;7.474;2022-09-14T09:53:52;2.63;;;1.20;;
42260;SDS011;27926;48.062;7.474;2022-09-14T09:56:21;4.05;;;1.75;;
42260;SDS011;27926;48.062;7.474;2022-09-14T09:58:51;3.75;;;1.13;;
42260;SDS011;27926;48.062;7.474;2022-09-14T10:03:43;2.03;;;1.13;;
42260;SDS011;27926;48.062;7.474;2022-09-14T10:06:22;4.53;;;1.83;;
42260;SDS011;27926;48.062;7.474;2022-09-14T10:08:47;6.03;;;1.50;;
42260;SDS011;27926;48.062;7.474;2022-09-14T10:11:32;3.67;;;1.33;;
42260;SDS011;27926;48.062;7.474;2022-09-14T10:14:00;3.88;;;1.25;;
42260;SDS011;27926;48.062;7.474;2022-09-14T10:16:28;3.17;;;1.55;;
42260;SDS011;27926;48.062;7.474;2022-09-14T10:18:59;5.68;;;1.70;;
42260;SDS011;27926;48.062;7.474;2022-09-14T10:21:26;6.47;;;1.25;;
42260;SDS011;27926;48.062;7.474;2022-09-14T10:26:30;2.97;;;1.58;;
42260;SDS011;27926;48.062;7.474;2022-09-14T10:29:21;4.45;;;1.98;;
42260;SDS011;27926;48.062;7.474;2022-09-14T10:31:51;4.78;;;1.80;;
42260;SDS011;27926;48.062;7.474;2022-09-14T10:34:20;3.63;;;1.95;;
42260;SDS011;27926;48.062;7.474;2022-09-14T10:36:50;4.63;;;1.93;;
42260;SDS011;27926;48.062;7.474;2022-09-14T10:39:28;2.25;;;1.55;;
42260;SDS011;27926;48.062;7.474;2022-09-14T10:58:23;3.95;;;2.13;;
42260;SDS011;27926;48.062;7.474;2022-09-14T11:06:00;4.45;;;1.70;;
42260;SDS011;27926;48.062;7.474;2022-09-14T11:26:58;3.95;;;1.33;;
42260;SDS011;27926;48.062;7.474;2022-09-14T11:29:49;4.30;;;1.50;;
42260;SDS011;27926;48.062;7.474;2022-09-14T11:32:37;8.70;;;1.20;;
42260;SDS011;27926;48.062;7.474;2022-09-14T11:37:57;4.53;;;1.20;;
42260;SDS011;27926;48.062;7.474;2022-09-14T11:40:40;2.25;;;1.17;;
42260;SDS011;27926;48.062;7.474;2022-09-14T11:43:14;1.25;;;0.82;;
42260;SDS011;27926;48.062;7.474;2022-09-14T11:48:22;0.73;;;0.73;;
42260;SDS011;27926;48.062;7.474;2022-09-14T11:50:51;13.10;;;1.38;;
42260;SDS011;27926;48.062;7.474;2022-09-14T11:53:23;0.95;;;0.60;;
42260;SDS011;27926;48.062;7.474;2022-09-14T11:58:17;2.80;;;1.05;;
42260;SDS011;27926;48.062;7.474;2022-09-14T12:01:23;1.90;;;0.50;;
42260;SDS011;27926;48.062;7.474;2022-09-14T12:08:53;1.95;;;0.60;;
42260;SDS011;27926;48.062;7.474;2022-09-14T12:11:25;2.87;;;0.70;;
42260;SDS011;27926;48.062;7.474;2022-09-14T12:19:46;2.35;;;0.93;;
42260;SDS011;27926;48.062;7.474;2022-09-14T12:25:19;1.15;;;0.50;;
42260;SDS011;27926;48.062;7.474;2022-09-14T12:27:46;1.38;;;0.60;;
42260;SDS011;27926;48.062;7.474;2022-09-14T12:32:56;1.88;;;1.23;;
42260;SDS011;27926;48.062;7.474;2022-09-14T12:38:37;0.60;;;0.60;;
42260;SDS011;27926;48.062;7.474;2022-09-14T12:41:00;2.63;;;0.82;;
42260;SDS011;27926;48.062;7.474;2022-09-14T13:04:14;4.95;;;0.90;;
42260;SDS011;27926;48.062;7.474;2022-09-14T13:06:46;4.28;;;1.02;;
42260;SDS011;27926;48.062;7.474;2022-09-14T13:09:16;2.10;;;0.80;;
42260;SDS011;27926;48.062;7.474;2022-09-14T13:11:44;1.73;;;0.85;;
42260;SDS011;27926;48.062;7.474;2022-09-14T13:14:15;1.25;;;1.10;;
42260;SDS011;27926;48.062;7.474;2022-09-14T13:16:46;1.38;;;0.93;;
42260;SDS011;27926;48.062;7.474;2022-09-14T13:19:22;2.80;;;1.00;;
42260;SDS011;27926;48.062;7.474;2022-09-14T13:21:47;3.80;;;0.88;;
42260;SDS011;27926;48.062;7.474;2022-09-14T13:24:18;7.55;;;1.38;;
42260;SDS011;27926;48.062;7.474;2022-09-14T13:26:52;1.52;;;1.20;;
42260;SDS011;27926;48.062;7.474;2022-09-14T13:29:20;1.98;;;1.33;;
42260;SDS011;27926;48.062;7.474;2022-09-14T13:31:49;5.53;;;1.38;;
42260;SDS011;27926;48.062;7.474;2022-09-14T13:34:19;1.37;;;0.87;;
42260;SDS011;27926;48.062;7.474;2022-09-14T13:36:47;4.38;;;1.45;;
42260;SDS011;27926;48.062;7.474;2022-09-14T13:39:26;3.13;;;1.70;;
42260;SDS011;27926;48.062;7.474;2022-09-14T13:41:52;2.97;;;1.20;;
42260;SDS011;27926;48.062;7.474;2022-09-14T13:44:17;4.70;;;1.40;;
42260;SDS011;27926;48.062;7.474;2022-09-14T13:47:14;6.45;;;1.35;;
42260;SDS011;27926;48.062;7.474;2022-09-14T13:49:43;4.45;;;1.73;;
42260;SDS011;27926;48.062;7.474;2022-09-14T13:54:45;1.48;;;1.25;;
42260;SDS011;27926;48.062;7.474;2022-09-14T13:57:21;4.85;;;1.33;;
42260;SDS011;27926;48.062;7.474;2022-09-14T14:02:44;1.55;;;1.30;;
42260;SDS011;27926;48.062;7.474;2022-09-14T14:05:25;3.67;;;1.75;;
42260;SDS011;27926;48.062;7.474;2022-09-14T14:07:56;4.97;;;2.03;;
42260;SDS011;27926;48.062;7.474;2022-09-14T14:10:23;5.15;;;2.13;;
42260;SDS011;27926;48.062;7.474;2022-09-14T14:12:54;5.97;;;2.35;;
42260;SDS011;27926;48.062;7.474;2022-09-14T14:15:41;8.68;;;3.13;;
42260;SDS011;27926;48.062;7.474;2022-09-14T14:21:03;10.65;;;3.65;;
42260;SDS011;27926;48.062;7.474;2022-09-14T14:23:49;5.20;;;2.53;;
42260;SDS011;27926;48.062;7.474;2022-09-14T14:26:17;8.30;;;2.60;;
42260;SDS011;27926;48.062;7.474;2022-09-14T14:28:48;4.25;;;1.77;;
42260;SDS011;27926;48.062;7.474;2022-09-14T14:31:13;5.67;;;1.73;;
42260;SDS011;27926;48.062;7.474;2022-09-14T14:33:48;8.65;;;1.83;;
42260;SDS011;27926;48.062;7.474;2022-09-14T14:36:14;4.25;;;1.52;;
42260;SDS011;27926;48.062;7.474;2022-09-14T14:38:40;1.75;;;1.45;;
42260;SDS011;27926;48.062;7.474;2022-09-14T14:41:08;8.23;;;1.50;;
42260;SDS011;27926;48.062;7.474;2022-09-14T14:43:38;7.07;;;1.40;;
42260;SDS011;27926;48.062;7.474;2022-09-14T14:46:04;4.75;;;1.83;;
42260;SDS011;27926;48.062;7.474;2022-09-14T14:48:30;3.58;;;1.27;;
42260;SDS011;27926;48.062;7.474;2022-09-14T14:50:54;3.70;;;1.30;;
42260;SDS011;27926;48.062;7.474;2022-09-14T14:53:19;6.57;;;1.77;;
42260;SDS011;27926;48.062;7.474;2022-09-14T14:55:44;1.48;;;1.10;;
42260;SDS011;27926;48.062;7.474;2022-09-14T14:58:12;5.40;;;1.53;;
42260;SDS011;27926;48.062;7.474;2022-09-14T15:00:39;6.82;;;1.65;;
42260;SDS011;27926;48.062;7.474;2022-09-14T15:03:04;3.70;;;1.47;;
42260;SDS011;27926;48.062;7.474;2022-09-14T15:05:28;2.20;;;1.10;;
42260;SDS011;27926;48.062;7.474;2022-09-14T15:07:54;3.13;;;1.35;;
42260;SDS011;27926;48.062;7.474;2022-09-14T15:10:19;2.03;;;1.17;;
42260;SDS011;27926;48.062;7.474;2022-09-14T15:12:45;4.97;;;1.45;;
42260;SDS011;27926;48.062;7.474;2022-09-14T15:15:15;1.90;;;1.00;;
42260;SDS011;27926;48.062;7.474;2022-09-14T15:17:44;3.58;;;1.73;;
42260;SDS011;27926;48.062;7.474;2022-09-14T15:20:09;9.67;;;1.30;;
42260;SDS011;27926;48.062;7.474;2022-09-14T15:22:35;2.28;;;1.23;;
42260;SDS011;27926;48.062;7.474;2022-09-14T15:25:00;3.85;;;1.02;;
42260;SDS011;27926;48.062;7.474;2022-09-14T15:27:25;2.87;;;1.60;;
42260;SDS011;27926;48.062;7.474;2022-09-14T15:29:49;1.77;;;0.90;;
42260;SDS011;27926;48.062;7.474;2022-09-14T15:32:14;2.10;;;1.10;;
42260;SDS011;27926;48.062;7.474;2022-09-14T15:34:39;3.80;;;1.30;;
42260;SDS011;27926;48.062;7.474;2022-09-14T15:37:04;1.85;;;1.00;;
42260;SDS011;27926;48.062;7.474;2022-09-14T15:39:29;2.27;;;1.53;;
42260;SDS011;27926;48.062;7.474;2022-09-14T15:41:54;4.03;;;1.05;;
42260;SDS011;27926;48.062;7.474;2022-09-14T15:44:20;5.55;;;1.10;;
42260;SDS011;27926;48.062;7.474;2022-09-14T15:46:45;4.07;;;1.13;;
42260;SDS011;27926;48.062;7.474;2022-09-14T15:49:11;1.63;;;1.13;;
42260;SDS011;27926;48.062;7.474;2022-09-14T15:51:37;5.28;;;0.95;;
42260;SDS011;27926;48.062;7.474;2022-09-14T15:54:04;3.22;;;0.70;;
42260;SDS011;27926;48.062;7.474;2022-09-14T15:56:29;3.10;;;1.17;;
42260;SDS011;27926;48.062;7.474;2022-09-14T15:58:58;1.80;;;1.10;;
42260;SDS011;27926;48.062;7.474;2022-09-14T16:01:24;1.60;;;1.25;;
42260;SDS011;27926;48.062;7.474;2022-09-14T16:03:54;4.72;;;0.70;;
42260;SDS011;27926;48.062;7.474;2022-09-14T16:06:23;8.60;;;1.13;;
42260;SDS011;27926;48.062;7.474;2022-09-14T16:08:47;1.20;;;0.97;;
42260;SDS011;27926;48.062;7.474;2022-09-14T16:11:12;1.77;;;0.97;;
42260;SDS011;27926;48.062;7.474;2022-09-14T16:13:37;1.87;;;1.10;;
42260;SDS011;27926;48.062;7.474;2022-09-14T16:16:05;1.93;;;1.00;;
42260;SDS011;27926;48.062;7.474;2022-09-14T16:18:34;3.72;;;1.33;;
42260;SDS011;27926;48.062;7.474;2022-09-14T16:21:10;2.55;;;1.00;;
42260;SDS011;27926;48.062;7.474;2022-09-14T16:23:49;2.40;;;0.70;;
42260;SDS011;27926;48.062;7.474;2022-09-14T16:26:19;2.85;;;1.40;;
42260;SDS011;27926;48.062;7.474;2022-09-14T16:28:49;3.22;;;0.98;;
42260;SDS011;27926;48.062;7.474;2022-09-14T16:31:48;1.83;;;0.90;;
42260;SDS011;27926;48.062;7.474;2022-09-14T16:34:09;0.90;;;0.60;;
42260;SDS011;27926;48.062;7.474;2022-09-14T16:36:37;5.68;;;0.98;;
42260;SDS011;27926;48.062;7.474;2022-09-14T16:39:03;0.73;;;0.73;;
42260;SDS011;27926;48.062;7.474;2022-09-14T16:41:30;2.88;;;0.93;;
42260;SDS011;27926;48.062;7.474;2022-09-14T16:43:56;3.15;;;0.98;;
42260;SDS011;27926;48.062;7.474;2022-09-14T16:46:22;2.78;;;0.70;;
42260;SDS011;27926;48.062;7.474;2022-09-14T16:48:47;1.35;;;0.57;;
42260;SDS011;27926;48.062;7.474;2022-09-14T16:51:13;3.15;;;1.00;;
42260;SDS011;27926;48.062;7.474;2022-09-14T16:56:06;2.60;;;0.80;;
42260;SDS011;27926;48.062;7.474;2022-09-14T16:58:32;0.55;;;0.50;;
42260;SDS011;27926;48.062;7.474;2022-09-14T17:01:05;3.50;;;1.05;;
42260;SDS011;27926;48.062;7.474;2022-09-14T17:03:33;7.55;;;0.90;;
42260;SDS011;27926;48.062;7.474;2022-09-14T17:06:02;3.33;;;1.10;;
42260;SDS011;27926;48.062;7.474;2022-09-14T17:08:29;12.20;;;0.98;;
42260;SDS011;27926;48.062;7.474;2022-09-14T17:10:54;3.20;;;1.10;;
42260;SDS011;27926;48.062;7.474;2022-09-14T17:13:19;6.22;;;0.90;;
42260;SDS011;27926;48.062;7.474;2022-09-14T17:15:44;2.03;;;1.03;;
42260;SDS011;27926;48.062;7.474;2022-09-14T17:18:11;1.75;;;0.90;;
42260;SDS011;27926;48.062;7.474;2022-09-14T17:20:37;3.40;;;0.88;;
42260;SDS011;27926;48.062;7.474;2022-09-14T17:23:01;3.17;;;1.20;;
42260;SDS011;27926;48.062;7.474;2022-09-14T17:25:26;2.73;;;1.13;;
42260;SDS011;27926;48.062;7.474;2022-09-14T17:27:51;2.72;;;0.93;;
42260;SDS011;27926;48.062;7.474;2022-09-14T17:30:16;0.95;;;0.90;;